KCXO

Conroe-North Houston Regional Airport

Houston, Texas, USA
METAR KCXO 161353Z 00000KT 10SM OVC080 07/06 A3022 RMK AO2 SLP234 T00670056
Observed Flight Rules
Dec-16 @ 13:53 UTC (an hour ago) Visual Flight Rules
Wind Visibility Clouds
Calm 10 miles
  • Overcast at 8,000' AGL
Temperatures Readings
Current 7°C / 45°F
Dewpoint 6°C / 43°F
Humidity 93%
Altimeter 30.22" Hg
Pressure 1023.4 hPa
Elevation 75
METAR KCXO 161353Z 00000KT 10SM OVC080 07/06 A3022 RMK AO2 SLP234 T00670056
Observed Flight Rules
Dec-16 @ 13:53 UTC
(an hour ago)
VFR
Wind Visibility
Calm 10 miles
Clouds
  • Overcast at 8,000' AGL
Temperature Dewpoint
7°C / 45°F 6°C / 43°F
Humidity Altimeter Pressure
93% 30.22" Hg 1023.4 hPa